Time;durP1;ratioP1;P1;durP2;ratioP2;P2;SDS_P1;SDS_P2;PMS_P1;PMS_P2;Temp;Humidity;BMP_temperature;BMP_pressure;BME280_temperature;BME280_humidity;BME280_pressure;Samples;Min_cycle;Max_cycle;Signal;HPM_P1;HPM_P2
2022/12/19 00:02:07;;;;;;;23.50;11.73;;;-0.50;99.90;;;;;;5072815;28;20629;-86
2022/12/19 00:04:33;;;;;;;24.07;12.03;;;-0.40;99.90;;;;;;5078859;28;20629;-84
2022/12/19 00:06:59;;;;;;;20.20;11.20;;;-0.40;99.90;;;;;;5072901;28;20232;-86
2022/12/19 00:09:26;;;;;;;22.33;12.47;;;-0.30;99.90;;;;;;5082569;28;20172;-88
2022/12/19 00:11:51;;;;;;;19.77;11.57;;;-0.30;99.90;;;;;;5075323;28;20213;-83
2022/12/19 00:14:17;;;;;;;22.03;12.43;;;-0.30;99.90;;;;;;5074380;28;20187;-85
2022/12/19 00:16:43;;;;;;;19.33;11.53;;;-0.20;99.90;;;;;;5075889;28;20191;-83
2022/12/19 00:19:10;;;;;;;21.00;11.60;;;-0.10;99.90;;;;;;5077716;28;20199;-87
2022/12/19 00:21:36;;;;;;;22.63;11.03;;;-0.10;99.90;;;;;;5079683;28;20606;-83
2022/12/19 00:24:04;;;;;;;22.50;11.77;;;-0.10;99.90;;;;;;5076200;28;20173;-81
2022/12/19 00:26:31;;;;;;;20.60;11.30;;;-0.30;99.90;;;;;;5074602;28;20225;-87
2022/12/19 00:28:59;;;;;;;19.63;11.53;;;-0.30;99.90;;;;;;5068821;28;20295;-84
2022/12/19 00:31:28;;;;;;;20.10;11.27;;;-0.40;99.90;;;;;;5072213;28;20204;-81
2022/12/19 00:33:54;;;;;;;17.60;10.70;;;-0.30;99.90;;;;;;5075170;28;20176;-85
2022/12/19 00:36:25;;;;;;;24.53;12.07;;;-0.30;99.90;;;;;;5075603;28;20227;-87
2022/12/19 00:38:53;;;;;;;19.83;11.30;;;-0.30;99.90;;;;;;5076929;28;20249;-86
2022/12/19 00:41:27;;;;;;;21.47;12.07;;;-0.30;99.90;;;;;;5080149;28;20641;-87
2022/12/19 00:43:58;;;;;;;20.63;11.67;;;-0.20;99.90;;;;;;5074220;28;20256;-88
2022/12/19 00:46:25;;;;;;;19.03;11.07;;;-0.20;99.90;;;;;;5074109;28;20181;-87
2022/12/19 00:48:51;;;;;;;21.83;11.20;;;-0.30;99.90;;;;;;5075202;28;20534;-87
2022/12/19 00:51:19;;;;;;;19.60;10.53;;;-0.40;99.90;;;;;;5075599;28;20618;-86
2022/12/19 00:53:46;;;;;;;21.07;11.87;;;-0.40;99.90;;;;;;5075129;28;20652;-82
2022/12/19 00:56:14;;;;;;;20.80;11.67;;;-0.40;99.90;;;;;;5074762;28;20185;-87
2022/12/19 00:58:41;;;;;;;17.37;10.90;;;-0.50;99.90;;;;;;5074670;28;20179;-87
2022/12/19 01:01:16;;;;;;;18.07;11.27;;;-0.60;99.90;;;;;;5079765;28;20241;-83
2022/12/19 01:03:42;;;;;;;19.53;10.63;;;-0.50;99.90;;;;;;5082549;28;20173;-87
2022/12/19 01:06:08;;;;;;;19.13;9.93;;;-0.40;99.90;;;;;;5075660;28;20176;-89
2022/12/19 01:08:34;;;;;;;17.97;11.23;;;-0.30;99.90;;;;;;5077357;28;20184;-86
2022/12/19 01:11:00;;;;;;;17.40;9.70;;;-0.30;99.90;;;;;;5077709;28;20197;-87
2022/12/19 01:13:28;;;;;;;17.00;10.07;;;-0.30;99.90;;;;;;5078438;28;20169;-85
2022/12/19 01:15:54;;;;;;;16.10;9.90;;;-0.30;99.90;;;;;;5092798;28;20230;-84
2022/12/19 01:18:21;;;;;;;18.40;10.40;;;-0.30;99.90;;;;;;5079345;28;20184;-87
2022/12/19 01:20:47;;;;;;;18.10;10.60;;;-0.20;99.90;;;;;;5078373;28;20172;-83
2022/12/19 01:23:14;;;;;;;17.47;9.80;;;-0.10;99.90;;;;;;5078845;28;20173;-87
2022/12/19 01:25:41;;;;;;;14.33;9.13;;;-0.10;99.90;;;;;;5087035;28;20216;-84
2022/12/19 01:28:10;;;;;;;17.50;10.47;;;-0.10;99.90;;;;;;5089588;28;20258;-86
2022/12/19 01:30:38;;;;;;;15.10;9.80;;;-0.10;99.90;;;;;;5077487;28;20219;-86
2022/12/19 01:33:04;;;;;;;16.43;9.93;;;-0.10;99.90;;;;;;5074876;28;20218;-88
2022/12/19 01:35:30;;;;;;;17.93;10.37;;;-0.20;99.90;;;;;;5075361;28;20172;-84
2022/12/19 01:37:56;;;;;;;15.63;10.07;;;-0.20;99.90;;;;;;5074361;28;20173;-86
2022/12/19 01:40:22;;;;;;;15.37;9.47;;;-0.20;99.90;;;;;;5080330;28;20654;-85
2022/12/19 01:42:48;;;;;;;18.03;9.97;;;-0.10;99.90;;;;;;5077445;28;20280;-85
2022/12/19 01:45:14;;;;;;;16.53;9.43;;;-0.10;99.90;;;;;;5080763;28;20196;-88
2022/12/19 01:48:18;;;;;;;16.93;9.13;;;-0.10;99.90;;;;;;5075871;28;20628;-86
2022/12/19 01:50:55;;;;;;;17.43;10.77;;;0.00;99.90;;;;;;5034134;28;20265;-88
2022/12/19 01:53:24;;;;;;;17.27;9.33;;;0.00;99.90;;;;;;5036363;28;20222;-86
2022/12/19 01:55:50;;;;;;;16.30;9.53;;;0.00;99.90;;;;;;5039870;28;20175;-87
2022/12/19 01:58:17;;;;;;;18.17;11.07;;;0.10;99.90;;;;;;5033385;28;20196;-88
2022/12/19 02:00:43;;;;;;;18.00;10.23;;;0.00;99.90;;;;;;5032331;28;20185;-89
2022/12/19 02:03:34;;;;;;;19.10;10.60;;;0.10;99.90;;;;;;5032099;28;20328;-85
2022/12/19 02:06:01;;;;;;;18.80;10.87;;;0.10;99.90;;;;;;5030939;28;20195;-86
2022/12/19 02:08:27;;;;;;;17.93;10.63;;;0.20;99.90;;;;;;5014831;28;20301;-86
2022/12/19 02:10:53;;;;;;;17.23;10.23;;;0.20;99.90;;;;;;5031807;28;20190;-85
2022/12/19 02:13:21;;;;;;;19.20;10.27;;;0.20;99.90;;;;;;5031516;28;20179;-87
2022/12/19 02:16:14;;;;;;;16.87;11.10;;;0.30;99.90;;;;;;5031806;28;20261;-86
2022/12/19 02:19:04;;;;;;;16.90;10.73;;;0.20;99.90;;;;;;5015405;28;20654;-87
2022/12/19 02:21:47;;;;;;;19.30;10.63;;;0.30;99.90;;;;;;5015002;28;20269;-85
2022/12/19 02:24:37;;;;;;;18.37;10.80;;;0.30;99.90;;;;;;5031529;28;20206;-88
2022/12/19 02:27:33;;;;;;;18.97;11.07;;;0.30;99.90;;;;;;5073646;28;20165;-85
2022/12/19 02:30:02;;;;;;;18.23;10.87;;;0.30;99.90;;;;;;5072705;28;20232;-85
2022/12/19 02:32:34;;;;;;;19.73;11.27;;;0.30;99.90;;;;;;5072345;28;20744;-82
2022/12/19 02:35:06;;;;;;;19.03;10.80;;;0.30;99.90;;;;;;5073028;28;20167;-86
2022/12/19 02:37:47;;;;;;;15.80;10.20;;;0.40;99.90;;;;;;5073460;28;20178;-88
2022/12/19 02:40:22;;;;;;;17.50;10.20;;;0.40;99.90;;;;;;5073452;28;20177;-88
2022/12/19 02:42:53;;;;;;;18.67;10.20;;;0.30;99.90;;;;;;5081529;28;20232;-87
2022/12/19 02:45:21;;;;;;;18.43;10.33;;;0.20;99.90;;;;;;5078914;28;20172;-87
2022/12/19 02:47:48;;;;;;;16.27;10.90;;;0.00;99.90;;;;;;5073789;28;20179;-85
2022/12/19 02:50:13;;;;;;;17.27;10.03;;;-0.10;99.90;;;;;;5073889;28;20174;-85
2022/12/19 02:52:42;;;;;;;20.23;11.27;;;-0.10;99.90;;;;;;5073629;28;20270;-85
2022/12/19 02:55:13;;;;;;;17.17;10.50;;;-0.10;99.90;;;;;;5082771;28;20168;-85
2022/12/19 02:57:42;;;;;;;20.20;11.00;;;-0.10;99.90;;;;;;5083609;28;20565;-88
2022/12/19 03:00:16;;;;;;;21.87;11.30;;;-0.20;99.90;;;;;;5074586;28;20192;-87
2022/12/19 03:03:04;;;;;;;17.13;9.97;;;-0.10;99.90;;;;;;5080325;28;20192;-85
2022/12/19 03:05:42;;;;;;;18.77;10.00;;;-0.20;99.90;;;;;;5081988;28;20166;-85
2022/12/19 03:08:17;;;;;;;21.37;10.67;;;-0.30;99.90;;;;;;5078787;28;20221;-85
2022/12/19 03:10:57;;;;;;;19.03;10.17;;;-0.30;99.90;;;;;;5076897;28;20191;-88
2022/12/19 03:13:36;;;;;;;16.03;9.93;;;-0.30;99.90;;;;;;5076631;28;20210;-86
2022/12/19 03:16:03;;;;;;;16.03;10.23;;;-0.30;99.90;;;;;;5072410;28;20177;-85
2022/12/19 03:18:32;;;;;;;17.10;9.27;;;-0.30;99.90;;;;;;5074843;28;20655;-84
2022/12/19 03:21:08;;;;;;;17.30;10.40;;;-0.20;99.90;;;;;;5073860;28;20164;-85
2022/12/19 03:23:34;;;;;;;16.17;9.93;;;-0.40;99.90;;;;;;5074584;28;20535;-85
2022/12/19 03:26:10;;;;;;;16.07;9.90;;;-0.40;99.90;;;;;;5072781;28;20239;-79
2022/12/19 03:28:55;;;;;;;17.67;10.03;;;-0.40;99.90;;;;;;5073958;28;20168;-79
2022/12/19 03:31:24;;;;;;;16.77;10.07;;;-0.50;99.90;;;;;;5075767;28;20204;-84
2022/12/19 03:33:56;;;;;;;14.13;9.20;;;-0.60;99.90;;;;;;5077597;28;20198;-85
2022/12/19 03:36:27;;;;;;;14.00;9.07;;;-0.60;99.90;;;;;;5079428;28;20168;-87
2022/12/19 03:38:55;;;;;;;14.57;9.77;;;-0.60;99.90;;;;;;5075764;28;20277;-86
2022/12/19 03:44:12;;;;;;;16.63;9.87;;;-0.50;99.90;;;;;;5073890;28;20793;-87
2022/12/19 03:46:44;;;;;;;13.87;9.67;;;-0.50;99.90;;;;;;5076397;28;20227;-88
2022/12/19 03:49:12;;;;;;;14.33;9.37;;;-0.50;99.90;;;;;;5075224;28;20158;-88
2022/12/19 03:51:53;;;;;;;16.47;9.73;;;-0.40;99.90;;;;;;5076057;28;20224;-87
2022/12/19 03:54:27;;;;;;;18.47;9.90;;;-0.40;99.90;;;;;;5076569;28;20167;-86
2022/12/19 03:57:04;;;;;;;17.47;9.93;;;-0.30;99.90;;;;;;5071591;28;20677;-85
2022/12/19 03:59:38;;;;;;;16.33;9.53;;;-0.20;99.90;;;;;;5073594;28;20225;-86
2022/12/19 04:02:05;;;;;;;17.63;9.73;;;-0.20;99.90;;;;;;5074677;28;20196;-88
2022/12/19 04:04:35;;;;;;;16.50;9.87;;;-0.20;99.90;;;;;;5075652;28;20171;-86
2022/12/19 04:07:02;;;;;;;17.33;10.00;;;-0.20;99.90;;;;;;5075458;28;20681;-88
2022/12/19 04:09:29;;;;;;;16.43;9.77;;;-0.10;99.90;;;;;;5075943;28;20202;-86
2022/12/19 04:12:14;;;;;;;19.33;10.67;;;-0.10;99.90;;;;;;5075411;28;20295;-87
2022/12/19 04:14:40;;;;;;;13.63;9.47;;;-0.10;99.90;;;;;;5074198;28;20198;-87
2022/12/19 04:17:23;;;;;;;20.20;9.87;;;-0.20;99.90;;;;;;5075523;28;20167;-83
2022/12/19 04:20:20;;;;;;;16.33;10.17;;;-0.30;99.90;;;;;;5075507;28;20168;-85
2022/12/19 04:23:10;;;;;;;16.10;9.97;;;-0.30;99.90;;;;;;5080284;28;20168;-84
2022/12/19 04:25:40;;;;;;;18.67;10.07;;;-0.30;99.90;;;;;;5082245;28;20164;-85
2022/12/19 04:28:11;;;;;;;17.40;9.57;;;-0.20;99.90;;;;;;5076164;28;20185;-85
2022/12/19 04:30:39;;;;;;;22.43;11.27;;;-0.30;99.90;;;;;;5076078;28;20161;-87
2022/12/19 04:33:05;;;;;;;16.00;10.37;;;-0.30;99.90;;;;;;5076286;28;20191;-88
2022/12/19 04:35:31;;;;;;;16.67;9.73;;;-0.20;99.90;;;;;;5080584;28;20173;-82
2022/12/19 04:37:57;;;;;;;20.87;10.40;;;-0.30;99.90;;;;;;5089856;28;20191;-87
2022/12/19 04:40:22;;;;;;;16.03;9.70;;;-0.30;99.90;;;;;;5076498;28;20288;-88
2022/12/19 04:42:48;;;;;;;17.93;9.90;;;-0.40;99.90;;;;;;5081967;28;20529;-87
2022/12/19 04:45:14;;;;;;;16.57;10.47;;;-0.30;99.90;;;;;;5081251;28;20169;-83
2022/12/19 04:47:40;;;;;;;17.17;9.60;;;-0.20;99.90;;;;;;5076120;28;20646;-88
2022/12/19 04:50:06;;;;;;;16.73;9.87;;;-0.20;99.90;;;;;;5074932;28;20672;-85
2022/12/19 04:52:31;;;;;;;16.73;10.00;;;-0.30;99.90;;;;;;5079100;28;20209;-88
2022/12/19 04:54:57;;;;;;;17.43;10.37;;;-0.30;99.90;;;;;;5079897;28;20178;-88
2022/12/19 04:57:23;;;;;;;15.53;9.63;;;-0.20;99.90;;;;;;5075769;28;20658;-88
2022/12/19 04:59:49;;;;;;;13.57;9.70;;;-0.20;99.90;;;;;;5073513;28;20219;-83
2022/12/19 05:02:14;;;;;;;18.53;10.87;;;-0.20;99.90;;;;;;5073304;28;20188;-85
2022/12/19 05:04:40;;;;;;;17.50;9.83;;;-0.20;99.90;;;;;;5075013;28;20730;-87
2022/12/19 05:07:06;;;;;;;15.97;10.10;;;-0.20;99.90;;;;;;5074382;28;20592;-85
2022/12/19 05:09:32;;;;;;;20.10;9.60;;;-0.10;99.90;;;;;;5074599;28;20181;-87
2022/12/19 05:11:58;;;;;;;18.07;10.13;;;-0.10;99.90;;;;;;5074537;28;20204;-86
2022/12/19 05:14:24;;;;;;;17.27;9.67;;;-0.20;99.90;;;;;;5074608;28;20248;-85
2022/12/19 05:16:49;;;;;;;16.50;10.43;;;-0.20;99.90;;;;;;5073317;28;20289;-85
2022/12/19 05:19:15;;;;;;;17.20;10.30;;;-0.10;99.90;;;;;;5074307;28;20516;-87
2022/12/19 05:21:41;;;;;;;15.53;9.67;;;-0.20;99.90;;;;;;5074442;28;20204;-87
2022/12/19 05:24:07;;;;;;;15.73;9.93;;;-0.20;99.90;;;;;;5074025;28;20202;-85
2022/12/19 05:26:32;;;;;;;17.97;10.00;;;-0.10;99.90;;;;;;5075013;28;20231;-87
2022/12/19 05:28:58;;;;;;;16.87;9.50;;;-0.10;99.90;;;;;;5074592;28;20176;-85
2022/12/19 05:31:24;;;;;;;14.87;10.27;;;-0.20;99.90;;;;;;5074121;28;20247;-87
2022/12/19 05:33:50;;;;;;;14.83;9.17;;;-0.20;99.90;;;;;;5073995;28;20177;-85
2022/12/19 05:36:17;;;;;;;19.23;10.20;;;-0.20;99.90;;;;;;5075223;28;20254;-86
2022/12/19 05:38:43;;;;;;;16.17;9.80;;;-0.10;99.90;;;;;;5078807;28;20209;-85
2022/12/19 05:41:14;;;;;;;16.23;9.80;;;-0.10;99.90;;;;;;5073687;28;20209;-87
2022/12/19 05:43:40;;;;;;;17.43;10.23;;;-0.10;99.90;;;;;;5087534;28;20172;-83
2022/12/19 05:46:06;;;;;;;18.27;10.43;;;-0.20;99.90;;;;;;5096896;28;20184;-82
2022/12/19 05:48:33;;;;;;;15.93;10.13;;;-0.20;99.90;;;;;;5093978;28;20216;-87
2022/12/19 05:50:58;;;;;;;18.43;10.63;;;-0.20;99.90;;;;;;5073878;28;20225;-84
2022/12/19 05:53:26;;;;;;;19.63;10.50;;;-0.20;99.90;;;;;;5073826;28;20185;-87
2022/12/19 05:56:05;;;;;;;17.33;9.97;;;-0.20;99.90;;;;;;5074528;28;20655;-85
2022/12/19 05:58:32;;;;;;;15.03;9.67;;;-0.20;99.90;;;;;;5074657;28;20706;-88
2022/12/19 06:01:06;;;;;;;16.77;10.17;;;-0.10;99.90;;;;;;5073133;28;20642;-87
2022/12/19 06:03:32;;;;;;;18.00;9.70;;;-0.20;99.90;;;;;;5078242;28;20199;-86
2022/12/19 06:06:01;;;;;;;17.83;9.90;;;-0.30;99.90;;;;;;5085795;28;20624;-85
2022/12/19 06:08:27;;;;;;;17.67;9.63;;;-0.40;99.90;;;;;;5074094;28;20224;-85
2022/12/19 06:10:53;;;;;;;18.77;10.47;;;-0.40;99.90;;;;;;5072520;28;20177;-83
2022/12/19 06:13:19;;;;;;;17.83;10.67;;;-0.40;99.90;;;;;;5079743;28;20279;-87
2022/12/19 06:15:44;;;;;;;17.63;9.57;;;-0.30;99.90;;;;;;5076308;28;20172;-86
2022/12/19 06:18:10;;;;;;;18.83;10.70;;;-0.30;99.90;;;;;;5091509;28;20181;-86
2022/12/19 06:20:36;;;;;;;14.90;9.93;;;-0.40;99.90;;;;;;5075557;28;20256;-86
2022/12/19 06:23:02;;;;;;;17.20;10.47;;;-0.40;99.90;;;;;;5074092;28;20263;-87
2022/12/19 06:25:27;;;;;;;20.23;10.80;;;-0.40;99.90;;;;;;5079473;28;20538;-86
2022/12/19 06:27:53;;;;;;;18.00;11.03;;;-0.40;99.90;;;;;;5079943;28;20182;-84
2022/12/19 06:30:19;;;;;;;15.00;9.93;;;-0.40;99.90;;;;;;5073834;28;20265;-86
2022/12/19 06:32:47;;;;;;;19.90;10.70;;;-0.40;99.90;;;;;;5075974;28;20584;-90
2022/12/19 06:35:13;;;;;;;17.53;10.03;;;-0.30;99.90;;;;;;5078095;28;20167;-86
2022/12/19 06:37:39;;;;;;;17.60;10.23;;;-0.30;99.90;;;;;;5095039;28;20180;-86
2022/12/19 06:40:05;;;;;;;18.87;10.33;;;-0.30;99.90;;;;;;5083594;28;20177;-88
2022/12/19 06:42:31;;;;;;;19.80;10.87;;;-0.30;99.90;;;;;;5075688;28;20207;-86
2022/12/19 06:44:57;;;;;;;19.23;10.47;;;-0.30;99.90;;;;;;5073394;28;20181;-86
2022/12/19 06:47:23;;;;;;;15.67;10.07;;;-0.20;99.90;;;;;;5073825;28;20182;-83
2022/12/19 06:49:49;;;;;;;19.30;9.53;;;-0.20;99.90;;;;;;5074811;28;20174;-83
2022/12/19 06:52:15;;;;;;;17.17;10.37;;;-0.10;99.90;;;;;;5079287;28;20632;-89
2022/12/19 06:54:42;;;;;;;20.00;10.80;;;-0.20;99.90;;;;;;5074555;28;20199;-89
2022/12/19 06:57:08;;;;;;;16.73;9.07;;;-0.30;99.90;;;;;;5075211;28;20172;-87
2022/12/19 06:59:34;;;;;;;17.63;10.47;;;-0.30;99.90;;;;;;5077391;28;20576;-88
2022/12/19 07:02:03;;;;;;;14.90;10.07;;;-0.30;99.90;;;;;;5077739;28;20181;-84
2022/12/19 07:04:37;;;;;;;19.60;11.03;;;-0.30;99.90;;;;;;5083818;28;20173;-86
2022/12/19 07:07:04;;;;;;;17.30;9.73;;;-0.30;99.90;;;;;;5080254;28;20225;-90
2022/12/19 07:09:32;;;;;;;15.70;9.77;;;-0.20;99.90;;;;;;5083344;28;20184;-83
2022/12/19 07:11:59;;;;;;;18.43;10.07;;;-0.10;99.90;;;;;;5083760;28;20209;-86
2022/12/19 07:14:25;;;;;;;19.47;9.87;;;-0.10;99.90;;;;;;5074239;28;20194;-87
2022/12/19 07:16:53;;;;;;;17.57;9.93;;;0.00;99.90;;;;;;5074402;28;20200;-85
2022/12/19 07:19:20;;;;;;;17.33;10.10;;;0.10;99.90;;;;;;5075749;28;20181;-84
2022/12/19 07:21:47;;;;;;;17.03;10.13;;;0.00;99.90;;;;;;5075473;28;20578;-83
2022/12/19 07:24:13;;;;;;;17.20;10.87;;;0.00;99.90;;;;;;5084228;28;20186;-81
2022/12/19 07:26:42;;;;;;;17.87;10.23;;;0.10;99.90;;;;;;5079348;28;20722;-81
2022/12/19 07:29:09;;;;;;;15.60;9.63;;;0.20;99.90;;;;;;5078886;28;20176;-84
2022/12/19 07:31:35;;;;;;;14.83;9.47;;;0.40;99.90;;;;;;5080310;28;20206;-82
2022/12/19 07:34:01;;;;;;;16.70;9.00;;;0.40;99.90;;;;;;5078409;28;20173;-83
2022/12/19 07:36:26;;;;;;;18.27;10.43;;;0.40;99.90;;;;;;5078203;28;20515;-84
2022/12/19 07:38:52;;;;;;;19.17;10.50;;;0.40;99.90;;;;;;5078417;28;20172;-83
2022/12/19 07:41:18;;;;;;;19.17;10.93;;;0.50;99.90;;;;;;5084909;28;20208;-81
2022/12/19 07:43:44;;;;;;;17.40;9.67;;;0.50;99.90;;;;;;5096510;28;20178;-81
2022/12/19 07:46:10;;;;;;;20.10;10.67;;;0.60;99.90;;;;;;5085191;28;20212;-85
2022/12/19 07:48:36;;;;;;;16.17;9.73;;;0.60;99.90;;;;;;5079201;28;20181;-83
2022/12/19 07:51:05;;;;;;;14.30;9.80;;;0.70;99.90;;;;;;5084696;28;20179;-84
2022/12/19 07:53:32;;;;;;;17.57;10.43;;;0.70;99.90;;;;;;5090931;28;20197;-83
2022/12/19 07:55:57;;;;;;;18.13;10.97;;;0.80;99.90;;;;;;5079673;28;20169;-81
2022/12/19 07:58:23;;;;;;;18.67;11.63;;;0.90;99.90;;;;;;5082918;28;20188;-85
2022/12/19 08:00:56;;;;;;;16.47;11.27;;;0.90;99.90;;;;;;5078269;28;20197;-82
2022/12/19 08:03:23;;;;;;;17.60;10.93;;;1.00;99.90;;;;;;5076985;28;20221;-83
2022/12/19 08:05:49;;;;;;;20.10;11.77;;;1.00;99.90;;;;;;5080942;28;20656;-82
2022/12/19 08:08:15;;;;;;;22.77;12.47;;;1.10;99.90;;;;;;5077859;28;20276;-83
2022/12/19 08:10:40;;;;;;;17.47;11.20;;;1.10;99.90;;;;;;5076341;28;20166;-84
2022/12/19 08:13:06;;;;;;;22.90;13.10;;;1.20;99.90;;;;;;5075785;28;20234;-83
2022/12/19 08:15:32;;;;;;;19.27;11.57;;;1.30;99.90;;;;;;5075540;28;20702;-82
2022/12/19 08:17:58;;;;;;;17.67;11.23;;;1.30;99.90;;;;;;5075886;28;20180;-82
2022/12/19 08:20:24;;;;;;;19.77;11.97;;;1.30;99.90;;;;;;5074621;28;20175;-81
2022/12/19 08:22:50;;;;;;;20.50;12.87;;;1.10;99.90;;;;;;5075600;28;20176;-82
2022/12/19 08:25:16;;;;;;;22.37;12.83;;;1.30;99.90;;;;;;5076537;28;20174;-82
2022/12/19 08:27:42;;;;;;;27.37;14.23;;;1.40;99.90;;;;;;5087783;28;20187;-82
2022/12/19 08:30:08;;;;;;;25.80;14.43;;;1.50;99.90;;;;;;5085579;28;20180;-83
2022/12/19 08:32:35;;;;;;;23.20;13.07;;;1.60;99.90;;;;;;5077457;28;20701;-83
2022/12/19 08:35:01;;;;;;;23.60;14.37;;;1.70;99.90;;;;;;5074636;28;20185;-84
2022/12/19 08:37:27;;;;;;;29.07;14.73;;;1.70;99.90;;;;;;5075803;28;20175;-84
2022/12/19 08:39:53;;;;;;;27.83;15.43;;;1.90;99.90;;;;;;5075488;28;20175;-83
2022/12/19 08:42:18;;;;;;;25.40;14.03;;;2.00;99.90;;;;;;5075642;28;20263;-83
2022/12/19 08:44:44;;;;;;;23.63;14.30;;;2.10;99.90;;;;;;5075400;28;20174;-85
2022/12/19 08:47:10;;;;;;;25.43;15.17;;;2.20;99.90;;;;;;5074344;28;20632;-84
2022/12/19 08:49:36;;;;;;;27.23;15.03;;;2.30;99.90;;;;;;5075323;28;20673;-80
2022/12/19 08:52:01;;;;;;;24.87;14.20;;;2.30;99.90;;;;;;5074143;28;20597;-85
2022/12/19 08:54:27;;;;;;;27.50;15.43;;;2.30;99.90;;;;;;5074183;28;20228;-83
2022/12/19 08:56:53;;;;;;;28.03;14.60;;;2.30;99.90;;;;;;5075193;28;20185;-83
2022/12/19 08:59:19;;;;;;;24.90;14.73;;;2.30;99.90;;;;;;5075185;28;20649;-84
2022/12/19 09:01:45;;;;;;;25.87;14.73;;;2.20;99.90;;;;;;5075195;28;20175;-81
2022/12/19 09:04:10;;;;;;;26.53;14.63;;;2.20;99.90;;;;;;5074969;28;20656;-81
2022/12/19 09:06:36;;;;;;;26.17;13.93;;;2.10;99.90;;;;;;5075111;28;20218;-83
2022/12/19 09:09:03;;;;;;;26.43;14.77;;;2.00;99.90;;;;;;5076330;28;20262;-80
2022/12/19 09:11:30;;;;;;;28.53;15.67;;;1.90;99.90;;;;;;5076034;28;20205;-83
2022/12/19 09:13:56;;;;;;;28.83;15.50;;;1.80;99.90;;;;;;5085288;28;20170;-83
2022/12/19 09:16:24;;;;;;;25.37;14.37;;;1.80;99.90;;;;;;5098174;28;20167;-84
2022/12/19 09:18:52;;;;;;;27.67;15.40;;;1.70;99.90;;;;;;5096696;28;20547;-82
2022/12/19 09:21:22;;;;;;;23.37;14.17;;;1.80;99.90;;;;;;5077622;28;20233;-82
2022/12/19 09:23:51;;;;;;;28.90;14.97;;;1.70;99.90;;;;;;5076028;28;20169;-81
2022/12/19 09:26:17;;;;;;;26.10;14.93;;;1.70;99.90;;;;;;5075888;28;20166;-82
2022/12/19 09:28:45;;;;;;;28.10;14.97;;;1.90;99.90;;;;;;5075370;28;20198;-84
2022/12/19 09:31:14;;;;;;;25.03;13.30;;;1.90;99.90;;;;;;5075105;28;20250;-83
2022/12/19 09:33:40;;;;;;;26.67;14.73;;;1.90;99.90;;;;;;5073658;28;20316;-84
2022/12/19 09:36:10;;;;;;;27.37;14.73;;;1.90;99.90;;;;;;5075392;28;20672;-83
2022/12/19 09:38:36;;;;;;;23.27;13.67;;;2.00;99.90;;;;;;5081760;28;20182;-83
2022/12/19 09:41:37;;;;;;;27.00;14.20;;;1.90;99.90;;;;;;5075923;28;20178;-81
2022/12/19 09:44:23;;;;;;;22.00;13.80;;;1.80;99.90;;;;;;5074499;28;20174;-84
2022/12/19 09:46:59;;;;;;;25.70;13.97;;;1.70;99.90;;;;;;5073408;28;20182;-83
2022/12/19 09:49:30;;;;;;;24.47;14.40;;;1.60;99.90;;;;;;5072730;28;20174;-83
2022/12/19 09:51:58;;;;;;;27.33;15.30;;;1.60;99.90;;;;;;5074040;28;20205;-81
2022/12/19 09:54:56;;;;;;;27.47;14.70;;;1.50;99.90;;;;;;5074447;28;20205;-83
2022/12/19 09:57:56;;;;;;;28.83;14.93;;;1.50;99.90;;;;;;5057332;28;20191;-85
2022/12/19 10:00:22;;;;;;;29.23;14.27;;;1.40;99.90;;;;;;5076679;28;20241;-85
2022/12/19 10:03:16;;;;;;;25.83;14.13;;;1.50;99.90;;;;;;5075347;28;20667;-85
2022/12/19 10:05:49;;;;;;;25.37;14.83;;;1.60;99.90;;;;;;5072862;28;20249;-82
2022/12/19 10:08:32;;;;;;;28.03;14.67;;;1.50;99.90;;;;;;5072932;28;20317;-85
2022/12/19 10:11:08;;;;;;;28.33;15.17;;;1.50;99.90;;;;;;5073528;28;20267;-84
2022/12/19 10:13:34;;;;;;;29.63;14.60;;;1.50;99.90;;;;;;5073380;28;20192;-84
2022/12/19 10:16:08;;;;;;;27.43;14.20;;;1.50;99.90;;;;;;5083093;28;20163;-83
2022/12/19 10:18:46;;;;;;;29.33;14.43;;;1.60;99.90;;;;;;5095560;28;20186;-81
2022/12/19 10:21:14;;;;;;;30.53;15.20;;;1.60;99.90;;;;;;5078386;28;20173;-84
2022/12/19 10:24:15;;;;;;;30.23;15.77;;;1.70;99.90;;;;;;5073481;28;20245;-83
2022/12/19 10:26:50;;;;;;;28.20;15.83;;;1.70;99.90;;;;;;5041145;28;20186;-83
2022/12/19 10:29:35;;;;;;;28.60;14.93;;;1.80;99.90;;;;;;5072811;28;20200;-85
2022/12/19 10:32:29;;;;;;;33.23;16.03;;;1.90;99.90;;;;;;5078557;28;20690;-85
2022/12/19 10:34:55;;;;;;;31.47;15.93;;;1.90;99.90;;;;;;5072609;28;20183;-82
2022/12/19 10:37:28;;;;;;;30.73;14.70;;;1.80;99.90;;;;;;5073582;28;20597;-84
2022/12/19 10:40:24;;;;;;;31.17;15.27;;;1.90;99.90;;;;;;5072148;28;20288;-84
2022/12/19 10:42:59;;;;;;;24.97;14.23;;;1.90;99.90;;;;;;5074846;28;20170;-83
2022/12/19 10:45:31;;;;;;;29.13;15.53;;;2.00;99.90;;;;;;5077101;28;20208;-83
2022/12/19 10:47:57;;;;;;;27.47;15.10;;;2.00;99.90;;;;;;5091525;28;20163;-84
2022/12/19 10:50:27;;;;;;;27.43;14.63;;;2.00;99.90;;;;;;5091080;28;20653;-82
2022/12/19 10:53:06;;;;;;;31.07;14.97;;;2.00;99.90;;;;;;5076122;28;20209;-84
2022/12/19 10:55:35;;;;;;;28.87;14.10;;;2.00;99.90;;;;;;5071615;28;20542;-81
2022/12/19 10:58:15;;;;;;;32.57;15.33;;;1.90;99.90;;;;;;5068666;28;20186;-80
2022/12/19 11:01:08;;;;;;;30.00;15.53;;;1.90;99.90;;;;;;5073732;28;20170;-81
2022/12/19 11:03:34;;;;;;;30.97;16.07;;;1.90;99.90;;;;;;5073989;28;20217;-84
2022/12/19 11:06:04;;;;;;;27.83;14.80;;;1.90;99.90;;;;;;5074361;28;20182;-84
2022/12/19 11:08:35;;;;;;;33.33;16.20;;;1.90;99.90;;;;;;5073751;28;20258;-83
2022/12/19 11:11:04;;;;;;;33.40;17.07;;;1.80;99.90;;;;;;5072903;28;20173;-85
2022/12/19 11:13:33;;;;;;;29.90;16.23;;;1.80;99.90;;;;;;5073009;28;20225;-83
2022/12/19 11:16:01;;;;;;;32.97;16.70;;;1.70;99.90;;;;;;5074186;28;20171;-82
2022/12/19 11:18:40;;;;;;;29.07;15.37;;;1.70;99.90;;;;;;5082557;28;20180;-84
2022/12/19 11:21:12;;;;;;;36.50;16.57;;;1.80;99.90;;;;;;5078315;28;20526;-83
2022/12/19 11:23:48;;;;;;;31.83;15.90;;;1.80;99.90;;;;;;5073912;28;20594;-83
2022/12/19 11:26:26;;;;;;;28.93;14.07;;;1.80;99.90;;;;;;5075633;28;20178;-84
2022/12/19 11:28:52;;;;;;;28.93;14.67;;;1.80;99.90;;;;;;5072848;28;20162;-84
2022/12/19 11:31:20;;;;;;;32.23;17.13;;;1.70;99.90;;;;;;5073071;28;20223;-84
2022/12/19 11:33:46;;;;;;;30.63;15.73;;;1.80;99.90;;;;;;5072400;28;20185;-84
2022/12/19 11:36:33;;;;;;;31.10;15.93;;;1.70;99.90;;;;;;5072695;28;20189;-85
2022/12/19 11:38:59;;;;;;;31.60;16.87;;;1.70;99.90;;;;;;5072861;28;20167;-83
2022/12/19 11:41:34;;;;;;;27.23;15.03;;;1.80;99.90;;;;;;5072977;28;20576;-86
2022/12/19 11:44:13;;;;;;;29.20;15.30;;;1.70;99.90;;;;;;5074253;28;20521;-82
2022/12/19 11:46:58;;;;;;;26.67;14.70;;;1.70;99.90;;;;;;5074537;28;20254;-83
2022/12/19 11:49:39;;;;;;;29.30;15.27;;;1.80;99.90;;;;;;5073846;28;20237;-83
2022/12/19 11:52:23;;;;;;;31.93;16.60;;;1.70;99.90;;;;;;5073370;28;20515;-84
2022/12/19 11:55:18;;;;;;;33.20;16.00;;;1.70;99.90;;;;;;5073347;28;20254;-83
2022/12/19 11:57:45;;;;;;;29.47;14.80;;;1.80;99.90;;;;;;5072127;28;20167;-84
2022/12/19 12:00:19;;;;;;;29.00;15.63;;;1.80;99.90;;;;;;5072500;28;20166;-82
2022/12/19 12:03:16;;;;;;;24.60;14.70;;;1.80;99.90;;;;;;5076838;28;20171;-83
2022/12/19 12:05:47;;;;;;;27.43;15.07;;;1.70;99.90;;;;;;5091193;28;20178;-84
2022/12/19 12:08:25;;;;;;;28.27;14.83;;;1.80;99.90;;;;;;5095427;28;20292;-84
2022/12/19 12:11:02;;;;;;;32.47;15.70;;;1.70;99.90;;;;;;5078410;28;20248;-84
2022/12/19 12:13:48;;;;;;;32.17;15.60;;;1.60;99.90;;;;;;5076524;28;20212;-84
2022/12/19 12:16:16;;;;;;;25.73;13.97;;;1.60;99.90;;;;;;5075195;28;20602;-83
2022/12/19 12:19:13;;;;;;;27.40;15.10;;;1.60;99.90;;;;;;5086871;28;20173;-82
2022/12/19 12:21:58;;;;;;;31.23;15.27;;;1.60;99.90;;;;;;5097533;28;20192;-83
2022/12/19 12:25:03;;;;;;;30.07;15.50;;;1.60;99.90;;;;;;5087703;28;20161;-84
2022/12/19 12:27:53;;;;;;;29.63;16.10;;;1.60;99.90;;;;;;5077695;28;20294;-83
2022/12/19 12:30:22;;;;;;;26.40;14.73;;;1.60;99.90;;;;;;5076723;28;20297;-80
2022/12/19 12:33:23;;;;;;;29.47;16.27;;;1.50;99.90;;;;;;5075961;28;20198;-83
2022/12/19 12:35:56;;;;;;;26.57;15.37;;;1.50;99.90;;;;;;5053667;28;20229;-83
2022/12/19 12:38:43;;;;;;;29.50;14.80;;;1.50;99.90;;;;;;5075796;28;20216;-85
2022/12/19 12:42:03;;;;;;;30.90;15.90;;;1.60;99.90;;;;;;5074072;28;20177;-85
2022/12/19 12:44:38;;;;;;;29.90;14.17;;;1.60;99.90;;;;;;5074071;28;20538;-83
2022/12/19 12:47:15;;;;;;;30.97;15.27;;;1.60;99.90;;;;;;5074844;28;20219;-84
2022/12/19 12:49:53;;;;;;;31.80;15.57;;;1.60;99.90;;;;;;5075360;28;20368;-82
2022/12/19 12:53:06;;;;;;;29.07;15.27;;;1.50;99.90;;;;;;5084650;28;20245;-84
2022/12/19 12:55:42;;;;;;;27.13;14.40;;;1.60;99.90;;;;;;5072415;28;20217;-84
2022/12/19 12:58:45;;;;;;;33.10;14.17;;;1.50;99.90;;;;;;5079448;28;20166;-84